createdAt,value
2022-10-18T00:00:19.295Z,101337.22
2022-10-18T00:02:46.186Z,101340.00
2022-10-18T00:05:12.973Z,101329.09
2022-10-18T00:07:39.792Z,101322.56
2022-10-18T00:10:07.288Z,101328.09
2022-10-18T00:12:35.705Z,101328.00
2022-10-18T00:15:03.470Z,101334.22
2022-10-18T00:17:30.564Z,101327.16
2022-10-18T00:19:57.605Z,101325.31
2022-10-18T00:22:25.445Z,101315.50
2022-10-18T00:24:52.553Z,101324.03
2022-10-18T00:27:19.366Z,101321.03
2022-10-18T00:29:46.344Z,101316.72
2022-10-18T00:32:13.264Z,101319.06
2022-10-18T00:34:40.414Z,101309.81
2022-10-18T00:37:07.524Z,101313.16
2022-10-18T00:39:34.714Z,101308.56
2022-10-18T00:42:01.664Z,101308.09
2022-10-18T00:44:28.417Z,101305.84
2022-10-18T00:47:00.650Z,101313.38
2022-10-18T00:49:34.410Z,101315.72
2022-10-18T00:52:17.521Z,101313.00
2022-10-18T00:54:46.336Z,101320.38
2022-10-18T00:57:14.374Z,101314.66
2022-10-18T00:59:42.928Z,101308.66
2022-10-18T01:02:10.354Z,101305.47
2022-10-18T01:04:37.405Z,101308.19
2022-10-18T01:07:19.138Z,101298.22
2022-10-18T01:09:58.814Z,101301.19
2022-10-18T01:13:02.809Z,101291.50
2022-10-18T01:15:58.061Z,101293.16
2022-10-18T01:18:43.035Z,101297.66
2022-10-18T01:21:17.492Z,101297.19
2022-10-18T01:23:59.650Z,101290.34
2022-10-18T01:26:41.625Z,101290.47
2022-10-18T01:29:59.479Z,101289.97
2022-10-18T01:32:35.016Z,101287.75
2022-10-18T01:35:08.110Z,101294.41
2022-10-18T01:37:36.603Z,101286.41
2022-10-18T01:40:06.817Z,101292.31
2022-10-18T01:42:34.737Z,101285.94
2022-10-18T01:45:03.917Z,101289.34
2022-10-18T01:47:31.327Z,101285.66
2022-10-18T01:50:00.754Z,101289.81
2022-10-18T01:52:27.795Z,101278.34
2022-10-18T01:54:56.010Z,101277.63
2022-10-18T01:57:41.229Z,101276.84
2022-10-18T02:00:16.765Z,101271.06
2022-10-18T02:02:48.350Z,101267.22
2022-10-18T02:05:47.601Z,101268.28
2022-10-18T02:08:42.879Z,101262.19
2022-10-18T02:11:13.326Z,101268.34
2022-10-18T02:13:44.998Z,101270.34
2022-10-18T02:16:16.457Z,101272.28
2022-10-18T02:18:52.043Z,101266.06
2022-10-18T02:21:21.295Z,101267.06
2022-10-18T02:23:49.402Z,101260.34
2022-10-18T02:26:16.980Z,101261.38
2022-10-18T02:28:44.855Z,101265.34
2022-10-18T02:31:45.812Z,101271.59
2022-10-18T02:34:36.587Z,101271.25
2022-10-18T02:37:04.468Z,101273.47
2022-10-18T02:39:35.826Z,101275.13
2022-10-18T02:42:07.063Z,101270.72
2022-10-18T02:44:34.579Z,101262.72
2022-10-18T02:47:01.878Z,101261.34
2022-10-18T02:49:28.777Z,101279.06
2022-10-18T02:51:55.803Z,101268.84
2022-10-18T02:54:23.440Z,101266.13
2022-10-18T02:56:50.395Z,101269.03
2022-10-18T02:59:17.286Z,101269.34
2022-10-18T03:01:44.273Z,101267.53
2022-10-18T03:04:11.089Z,101265.13
2022-10-18T03:06:38.210Z,101261.13
2022-10-18T03:09:06.401Z,101264.81
2022-10-18T03:11:33.571Z,101270.38
2022-10-18T03:14:00.425Z,101268.53
2022-10-18T03:16:27.366Z,101267.97
2022-10-18T03:18:54.157Z,101271.34
2022-10-18T03:21:21.063Z,101270.31
2022-10-18T03:23:47.898Z,101264.88
2022-10-18T03:26:14.702Z,101271.41
2022-10-18T03:28:41.536Z,101279.84
2022-10-18T03:31:08.638Z,101282.19
2022-10-18T03:33:36.123Z,101285.00
2022-10-18T03:36:03.068Z,101289.31
2022-10-18T03:38:29.903Z,101278.72
2022-10-18T03:40:56.741Z,101287.56
2022-10-18T03:43:23.572Z,101288.22
2022-10-18T03:45:50.958Z,101291.78
2022-10-18T03:48:17.758Z,101284.41
2022-10-18T03:50:44.636Z,101284.69
2022-10-18T03:53:11.679Z,101294.34
2022-10-18T03:55:38.749Z,101288.69
2022-10-18T03:58:05.577Z,101290.84
2022-10-18T04:00:33.337Z,101289.44
2022-10-18T04:03:00.555Z,101291.75
2022-10-18T04:05:30.653Z,101292.31
2022-10-18T04:07:58.005Z,101293.91
2022-10-18T04:10:24.779Z,101292.25
2022-10-18T04:12:51.632Z,101297.53
2022-10-18T04:15:18.610Z,101294.47
2022-10-18T04:17:45.470Z,101294.84
2022-10-18T04:20:12.648Z,101286.25
2022-10-18T04:22:39.488Z,101288.41
2022-10-18T04:25:06.572Z,101285.78
2022-10-18T04:27:33.608Z,101288.47
2022-10-18T04:30:00.700Z,101288.91
2022-10-18T04:32:29.450Z,101286.16
2022-10-18T04:34:56.267Z,101282.13
2022-10-18T04:37:23.407Z,101296.91
2022-10-18T04:39:53.425Z,101290.78
2022-10-18T04:42:22.097Z,101299.50
2022-10-18T04:44:49.391Z,101296.06
2022-10-18T04:47:16.958Z,101293.22
2022-10-18T04:49:44.032Z,101293.22
2022-10-18T04:52:11.280Z,101294.16
2022-10-18T04:54:38.250Z,101300.88
2022-10-18T04:57:05.166Z,101296.06
2022-10-18T04:59:32.025Z,101290.50
2022-10-18T05:01:58.981Z,101293.88
2022-10-18T05:04:25.931Z,101292.06
2022-10-18T05:06:52.743Z,101303.97
2022-10-18T05:09:19.603Z,101298.91
2022-10-18T05:11:46.556Z,101303.81
2022-10-18T05:14:13.381Z,101306.38
2022-10-18T05:16:40.167Z,101303.34
2022-10-18T05:19:07.081Z,101305.53
2022-10-18T05:21:33.956Z,101307.09
2022-10-18T05:24:00.904Z,101305.22
2022-10-18T05:26:27.862Z,101301.31
2022-10-18T05:28:54.988Z,101293.16
2022-10-18T05:31:22.036Z,101301.06
2022-10-18T05:33:48.861Z,101303.47
2022-10-18T05:36:15.823Z,101294.41
2022-10-18T05:38:44.078Z,101296.00
2022-10-18T05:41:11.731Z,101290.22
2022-10-18T05:43:39.226Z,101298.88
2022-10-18T05:46:11.886Z,101308.06
2022-10-18T05:48:40.719Z,101284.00
2022-10-18T05:51:07.682Z,101304.41
2022-10-18T05:53:37.037Z,101302.09
2022-10-18T05:56:05.732Z,101297.53
2022-10-18T05:58:32.674Z,101306.69
2022-10-18T06:01:04.695Z,101316.28
2022-10-18T06:03:32.432Z,101314.72
2022-10-18T06:06:04.427Z,101296.69
2022-10-18T06:08:31.702Z,101307.47
2022-10-18T06:10:58.952Z,101307.00
2022-10-18T06:13:26.032Z,101308.09
2022-10-18T06:15:57.228Z,101301.06
2022-10-18T06:18:24.183Z,101306.84
2022-10-18T06:20:57.002Z,101310.34
2022-10-18T06:23:23.913Z,101312.16
2022-10-18T06:25:50.731Z,101311.94
2022-10-18T06:28:18.609Z,101322.09
2022-10-18T06:30:45.448Z,101319.47
2022-10-18T06:33:12.313Z,101315.31
2022-10-18T06:35:39.095Z,101308.47
2022-10-18T06:38:06.380Z,101303.44
2022-10-18T06:40:38.055Z,101305.78
2022-10-18T06:43:20.723Z,101306.56
2022-10-18T06:45:48.561Z,101295.63
2022-10-18T06:48:15.844Z,101292.53
2022-10-18T06:50:43.004Z,101289.03
2022-10-18T06:53:09.942Z,101288.41
2022-10-18T06:55:36.734Z,101297.00
2022-10-18T06:58:03.596Z,101294.47
2022-10-18T07:00:30.413Z,101282.84
2022-10-18T07:02:58.402Z,101282.63
2022-10-18T07:05:25.456Z,101267.47
2022-10-18T07:07:55.656Z,101269.47
2022-10-18T07:10:25.467Z,101269.72
2022-10-18T07:12:59.201Z,101269.50
2022-10-18T07:15:38.668Z,101263.50
2022-10-18T07:18:05.766Z,101260.00
2022-10-18T07:20:32.581Z,101259.53
2022-10-18T07:22:59.469Z,101265.19
2022-10-18T07:25:28.484Z,101259.44
2022-10-18T07:27:57.575Z,101254.00
2022-10-18T07:30:24.418Z,101253.84
2022-10-18T07:32:52.016Z,101260.72
2022-10-18T07:35:18.948Z,101252.69
2022-10-18T07:37:45.761Z,101251.59
2022-10-18T07:40:13.147Z,101242.72
2022-10-18T07:42:39.939Z,101256.09
2022-10-18T07:45:07.115Z,101260.94
2022-10-18T07:47:35.243Z,101250.69
2022-10-18T07:50:02.462Z,101246.66
2022-10-18T07:52:29.245Z,101240.38
2022-10-18T07:54:56.049Z,101240.41
2022-10-18T07:57:23.532Z,101236.97
2022-10-18T07:59:56.387Z,101220.03
2022-10-18T08:02:24.231Z,101231.00
2022-10-18T08:04:51.116Z,101229.63
2022-10-18T08:07:17.972Z,101221.53
2022-10-18T08:09:44.807Z,101229.69
2022-10-18T08:12:11.649Z,101228.13
2022-10-18T08:14:38.648Z,101218.19
2022-10-18T08:17:05.572Z,101221.38
2022-10-18T08:19:32.517Z,101208.25
2022-10-18T08:21:59.386Z,101219.28
2022-10-18T08:24:26.309Z,101211.22
2022-10-18T08:26:53.288Z,101206.84
2022-10-18T08:29:25.872Z,101205.88
2022-10-18T08:31:53.622Z,101202.72
2022-10-18T08:34:20.563Z,101199.72
2022-10-18T08:36:47.349Z,101195.19
2022-10-18T08:39:14.218Z,101197.06
2022-10-18T08:42:16.193Z,101192.38
2022-10-18T08:44:48.274Z,101196.81
2022-10-18T08:47:25.800Z,101187.91
2022-10-18T08:50:02.600Z,101183.94
2022-10-18T08:52:53.598Z,101184.59
2022-10-18T08:55:20.353Z,101182.38
2022-10-18T08:57:48.591Z,101177.09
2022-10-18T09:00:29.557Z,101172.16
2022-10-18T09:03:18.214Z,101172.00
2022-10-18T09:06:13.097Z,101167.13
2022-10-18T09:09:17.377Z,101158.47
2022-10-18T09:11:44.248Z,101158.94
2022-10-18T09:14:29.064Z,101146.84
2022-10-18T09:17:01.747Z,101148.63
2022-10-18T09:19:40.577Z,101153.66
2022-10-18T09:22:18.211Z,101145.03
2022-10-18T09:24:53.763Z,101138.81
2022-10-18T09:27:28.922Z,101144.69
2022-10-18T09:30:28.504Z,101148.38
2022-10-18T09:33:26.128Z,101131.56
2022-10-18T09:35:58.303Z,101123.78
2022-10-18T09:38:31.076Z,101127.28
2022-10-18T09:41:19.376Z,101134.06
2022-10-18T09:43:58.674Z,101123.16
2022-10-18T09:46:31.315Z,101119.41
2022-10-18T09:49:27.351Z,101109.94
2022-10-18T09:51:55.430Z,101108.66
2022-10-18T09:54:28.162Z,101105.97
2022-10-18T09:57:12.105Z,101099.91
2022-10-18T09:59:48.052Z,101104.00
2022-10-18T10:02:23.306Z,101098.72
2022-10-18T10:04:51.818Z,101085.69
2022-10-18T10:07:28.708Z,101078.72
2022-10-18T10:10:04.998Z,101077.16
2022-10-18T10:12:33.014Z,101068.59
2022-10-18T10:15:29.546Z,101064.19
2022-10-18T10:18:07.143Z,101056.16
2022-10-18T10:20:42.241Z,101045.00
2022-10-18T10:23:28.529Z,101047.31
2022-10-18T10:26:20.469Z,101040.28
2022-10-18T10:28:49.097Z,101041.97
2022-10-18T10:31:19.138Z,101026.31
2022-10-18T10:33:47.694Z,101023.44
2022-10-18T10:36:21.321Z,101024.41
2022-10-18T10:39:13.070Z,101022.59
2022-10-18T10:41:41.565Z,101003.28
2022-10-18T10:44:20.332Z,101007.03
2022-10-18T10:46:49.698Z,101000.97
2022-10-18T10:49:39.634Z,100998.44
2022-10-18T10:52:08.826Z,100991.81
2022-10-18T10:54:52.143Z,100991.16
2022-10-18T10:57:28.000Z,100980.88
2022-10-18T11:00:01.811Z,100981.81
2022-10-18T11:02:34.977Z,100964.03
2022-10-18T11:05:29.436Z,100963.19
2022-10-18T11:08:01.532Z,100959.78
2022-10-18T11:10:32.835Z,100952.53
2022-10-18T11:13:32.800Z,100950.16
2022-10-18T11:16:14.298Z,100940.53
2022-10-18T11:18:46.771Z,100943.41
2022-10-18T11:21:19.043Z,100934.78
2022-10-18T11:23:46.503Z,100930.78
2022-10-18T11:26:13.322Z,100926.03
2022-10-18T11:28:43.083Z,100912.38
2022-10-18T11:31:34.760Z,100912.81
2022-10-18T11:34:09.814Z,100912.78
2022-10-18T11:37:28.197Z,100897.13
2022-10-18T11:40:16.070Z,100899.78
2022-10-18T11:43:12.222Z,100889.28
2022-10-18T11:45:44.867Z,100884.09
2022-10-18T11:48:39.636Z,100882.88
2022-10-18T11:51:09.268Z,100874.34
2022-10-18T11:54:11.518Z,100867.72
2022-10-18T11:56:47.112Z,100870.06
2022-10-18T11:59:19.752Z,100860.84
2022-10-18T12:02:14.764Z,100857.59
2022-10-18T12:04:59.852Z,100853.50
2022-10-18T12:07:40.922Z,100851.97
2022-10-18T12:10:19.486Z,100845.47
2022-10-18T12:12:58.521Z,100842.78
2022-10-18T12:15:28.776Z,100831.16
2022-10-18T12:18:03.448Z,100836.66
2022-10-18T12:20:35.534Z,100837.69
2022-10-18T12:23:57.178Z,100841.78
2022-10-18T12:26:25.740Z,100833.88
2022-10-18T12:29:20.460Z,100835.50
2022-10-18T12:31:59.470Z,100831.56
2022-10-18T12:34:31.975Z,100822.84
2022-10-18T12:37:14.882Z,100817.22
2022-10-18T12:40:05.548Z,100811.66
2022-10-18T12:42:40.769Z,100810.69
2022-10-18T12:45:13.427Z,100807.81
2022-10-18T12:47:40.674Z,100803.41
2022-10-18T12:50:22.273Z,100802.28
2022-10-18T12:53:22.789Z,100806.16
2022-10-18T12:55:51.860Z,100786.75
2022-10-18T12:58:26.247Z,100797.53
2022-10-18T13:00:58.367Z,100796.66
2022-10-18T13:03:25.193Z,100791.13
2022-10-18T13:05:56.842Z,100785.72
2022-10-18T13:08:38.060Z,100788.09
2022-10-18T13:11:10.817Z,100786.91
2022-10-18T13:13:59.680Z,100782.16
2022-10-18T13:16:50.751Z,100780.19
2022-10-18T13:19:32.334Z,100782.19
2022-10-18T13:22:28.532Z,100781.53
2022-10-18T13:25:11.201Z,100775.63
2022-10-18T13:27:37.957Z,100774.47
2022-10-18T13:30:33.573Z,100773.28
2022-10-18T13:33:18.974Z,100779.16
2022-10-18T13:35:57.721Z,100772.41
2022-10-18T13:38:30.611Z,100762.16
2022-10-18T13:41:12.848Z,100770.03
2022-10-18T13:44:07.284Z,100760.34
2022-10-18T13:46:34.131Z,100761.59
2022-10-18T13:49:44.547Z,100757.81
2022-10-18T13:52:23.473Z,100760.31
2022-10-18T13:55:27.918Z,100752.41
2022-10-18T13:58:04.063Z,100756.56
2022-10-18T14:00:58.750Z,100744.88
2022-10-18T14:03:56.175Z,100739.63
2022-10-18T14:06:38.859Z,100740.78
2022-10-18T14:09:26.315Z,100739.78
2022-10-18T14:12:17.223Z,100746.25
2022-10-18T14:14:48.585Z,100736.81
2022-10-18T14:17:40.855Z,100729.81
2022-10-18T14:20:27.341Z,100732.81
2022-10-18T14:23:29.013Z,100722.59
2022-10-18T14:26:08.927Z,100720.25
2022-10-18T14:28:54.969Z,100715.47
2022-10-18T14:31:22.694Z,100711.03
2022-10-18T14:33:57.681Z,100708.16
2022-10-18T14:36:36.276Z,100707.25
2022-10-18T14:39:06.095Z,100706.88
2022-10-18T14:41:35.682Z,100700.69
2022-10-18T14:44:11.693Z,100696.66
2022-10-18T14:46:58.409Z,100698.19
2022-10-18T14:49:25.877Z,100698.19
2022-10-18T14:51:56.384Z,100684.53
2022-10-18T14:54:32.145Z,100680.59
2022-10-18T14:57:05.200Z,100680.50
2022-10-18T14:59:57.292Z,100679.31
2022-10-18T15:02:32.404Z,100678.09
2022-10-18T15:05:07.761Z,100688.22
2022-10-18T15:07:36.114Z,100675.13
2022-10-18T15:10:05.410Z,100682.34
2022-10-18T15:12:37.107Z,100663.41
2022-10-18T15:15:27.684Z,100670.22
2022-10-18T15:17:56.786Z,100672.06
2022-10-18T15:20:32.181Z,100667.00
2022-10-18T15:23:23.477Z,100663.28
2022-10-18T15:25:53.352Z,100673.56
2022-10-18T15:28:37.871Z,100669.22
2022-10-18T15:31:07.218Z,100667.88
2022-10-18T15:33:34.978Z,100668.03
2022-10-18T15:36:11.495Z,100667.19
2022-10-18T15:38:39.103Z,100673.66
2022-10-18T15:41:39.615Z,100673.53
2022-10-18T15:44:24.370Z,100680.06
2022-10-18T15:47:21.817Z,100670.28
2022-10-18T15:49:58.309Z,100681.88
2022-10-18T15:52:39.500Z,100675.28
2022-10-18T15:55:31.573Z,100679.50
2022-10-18T15:58:06.401Z,100675.72
2022-10-18T16:00:33.314Z,100683.47
2022-10-18T16:03:00.148Z,100680.78
2022-10-18T16:05:27.339Z,100680.81
2022-10-18T16:07:54.484Z,100685.03
2022-10-18T16:10:21.386Z,100683.31
2022-10-18T16:12:48.380Z,100682.03
2022-10-18T16:15:15.435Z,100693.03
2022-10-18T16:17:42.355Z,100688.06
2022-10-18T16:20:20.966Z,100688.91
2022-10-18T16:22:48.068Z,100696.06
2022-10-18T16:25:15.157Z,100697.69
2022-10-18T16:27:42.056Z,100702.75
2022-10-18T16:30:20.656Z,100703.06
2022-10-18T16:32:48.968Z,100709.03
2022-10-18T16:35:15.920Z,100710.91
2022-10-18T16:37:43.375Z,100709.72
2022-10-18T16:40:28.208Z,100702.47
2022-10-18T16:42:55.080Z,100710.59
2022-10-18T16:45:22.168Z,100706.09
2022-10-18T16:47:49.013Z,100708.19
2022-10-18T16:50:18.588Z,100706.94
2022-10-18T16:52:45.572Z,100709.22
2022-10-18T16:55:21.390Z,100717.03
2022-10-18T16:57:49.055Z,100719.56
2022-10-18T17:00:21.561Z,100717.22
2022-10-18T17:02:49.893Z,100712.13
2022-10-18T17:05:17.912Z,100713.84
2022-10-18T17:07:45.575Z,100708.41
2022-10-18T17:10:14.837Z,100708.03
2022-10-18T17:12:42.155Z,100712.59
2022-10-18T17:15:10.232Z,100710.69
2022-10-18T17:17:37.940Z,100706.72
2022-10-18T17:20:07.611Z,100712.75
2022-10-18T17:22:34.970Z,100704.63
2022-10-18T17:25:01.902Z,100705.69
2022-10-18T17:27:28.968Z,100704.28
2022-10-18T17:29:55.932Z,100705.41
2022-10-18T17:32:22.909Z,100711.66
2022-10-18T17:34:49.784Z,100713.50
2022-10-18T17:37:16.655Z,100710.38
2022-10-18T17:39:43.483Z,100710.16
2022-10-18T17:42:10.340Z,100711.81
2022-10-18T17:44:37.357Z,100708.75
2022-10-18T17:47:04.219Z,100702.75
2022-10-18T17:49:31.263Z,100696.91
2022-10-18T17:51:58.097Z,100695.81
2022-10-18T17:54:25.121Z,100695.97
2022-10-18T17:56:53.922Z,100690.03
2022-10-18T17:59:21.522Z,100695.81
2022-10-18T18:01:48.593Z,100683.47
2022-10-18T18:04:17.148Z,100684.22
2022-10-18T18:06:45.548Z,100686.91
2022-10-18T18:09:15.192Z,100683.50
2022-10-18T18:11:44.069Z,100677.25
2022-10-18T18:14:11.870Z,100680.28
2022-10-18T18:16:42.182Z,100675.16
2022-10-18T18:19:10.273Z,100679.81
2022-10-18T18:21:41.080Z,100669.13
2022-10-18T18:24:10.138Z,100668.91
2022-10-18T18:26:38.579Z,100672.09
2022-10-18T18:29:05.750Z,100661.56
2022-10-18T18:31:38.759Z,100658.06
2022-10-18T18:34:09.702Z,100659.50
2022-10-18T18:36:36.571Z,100661.94
2022-10-18T18:39:05.706Z,100657.69
2022-10-18T18:41:33.317Z,100659.00
2022-10-18T18:44:04.245Z,100652.16
2022-10-18T18:46:36.688Z,100649.25
2022-10-18T18:49:04.718Z,100653.00
2022-10-18T18:51:33.247Z,100649.38
2022-10-18T18:54:00.767Z,100647.44
2022-10-18T18:56:29.183Z,100650.00
2022-10-18T18:58:58.743Z,100646.19
2022-10-18T19:01:28.676Z,100647.97
2022-10-18T19:03:57.402Z,100655.25
2022-10-18T19:06:30.288Z,100652.44
2022-10-18T19:09:03.099Z,100651.56
2022-10-18T19:11:33.694Z,100647.56
2022-10-18T19:14:01.500Z,100654.50
2022-10-18T19:16:32.380Z,100644.69
2022-10-18T19:19:10.578Z,100649.69
2022-10-18T19:21:40.460Z,100651.97
2022-10-18T19:24:08.090Z,100644.16
2022-10-18T19:27:02.649Z,100637.50
2022-10-18T19:29:34.460Z,100641.72
2022-10-18T19:32:04.157Z,100638.66
2022-10-18T19:34:32.200Z,100639.66
2022-10-18T19:36:59.139Z,100633.19
2022-10-18T19:39:35.352Z,100635.47
2022-10-18T19:42:05.100Z,100634.88
2022-10-18T19:44:34.237Z,100637.34
2022-10-18T19:47:01.196Z,100634.06
2022-10-18T19:49:28.847Z,100635.84
2022-10-18T19:51:56.664Z,100635.72
2022-10-18T19:54:24.428Z,100637.53
2022-10-18T19:56:51.723Z,100626.63
2022-10-18T19:59:18.639Z,100625.19
2022-10-18T20:01:46.257Z,100618.66
2022-10-18T20:04:13.682Z,100625.69
2022-10-18T20:06:41.186Z,100620.38
2022-10-18T20:09:11.568Z,100632.19
2022-10-18T20:11:40.983Z,100628.94
2022-10-18T20:14:09.703Z,100616.66
2022-10-18T20:16:36.631Z,100615.91
2022-10-18T20:19:07.342Z,100619.38
2022-10-18T20:21:36.129Z,100601.84
2022-10-18T20:24:04.421Z,100609.88
2022-10-18T20:26:31.574Z,100599.44
2022-10-18T20:28:59.891Z,100597.00
2022-10-18T20:31:33.155Z,100591.63
2022-10-18T20:34:02.757Z,100588.00
2022-10-18T20:36:31.592Z,100583.59
2022-10-18T20:38:59.626Z,100583.16
2022-10-18T20:41:32.128Z,100580.94
2022-10-18T20:44:01.692Z,100580.03
2022-10-18T20:46:34.406Z,100577.09
2022-10-18T20:49:02.184Z,100571.28
2022-10-18T20:51:29.060Z,100566.88
2022-10-18T20:53:55.985Z,100567.50
2022-10-18T20:56:26.698Z,100566.97
2022-10-18T20:58:57.006Z,100560.53
2022-10-18T21:01:31.410Z,100562.19
2022-10-18T21:04:01.024Z,100561.88
2022-10-18T21:06:33.155Z,100556.94
2022-10-18T21:09:02.414Z,100559.91
2022-10-18T21:11:30.591Z,100545.59
2022-10-18T21:14:02.157Z,100544.25
2022-10-18T21:16:34.166Z,100536.47
2022-10-18T21:19:04.758Z,100540.75
2022-10-18T21:21:32.398Z,100528.97
2022-10-18T21:24:02.491Z,100523.19
2022-10-18T21:26:32.376Z,100519.91
2022-10-18T21:29:00.326Z,100515.38
2022-10-18T21:31:32.989Z,100508.81
2022-10-18T21:34:02.942Z,100503.94
2022-10-18T21:36:35.634Z,100499.16
2022-10-18T21:39:04.494Z,100499.16
2022-10-18T21:41:31.915Z,100500.19
2022-10-18T21:43:58.782Z,100488.66
2022-10-18T21:46:27.062Z,100489.63
2022-10-18T21:48:56.728Z,100493.59
2022-10-18T21:51:25.915Z,100490.31
2022-10-18T21:53:55.189Z,100480.56
2022-10-18T21:56:25.638Z,100467.09
2022-10-18T21:58:52.939Z,100472.72
2022-10-18T22:01:25.587Z,100464.69
2022-10-18T22:03:53.866Z,100477.22
2022-10-18T22:06:22.149Z,100462.66
2022-10-18T22:08:51.988Z,100463.72
2022-10-18T22:11:21.493Z,100456.84
2022-10-18T22:13:48.587Z,100459.63
2022-10-18T22:16:17.069Z,100455.38
2022-10-18T22:18:45.153Z,100450.38
2022-10-18T22:21:14.549Z,100457.13
2022-10-18T22:23:47.274Z,100449.72
2022-10-18T22:26:16.620Z,100448.34
2022-10-18T22:28:44.958Z,100449.63
2022-10-18T22:31:21.180Z,100445.25
2022-10-18T22:33:53.557Z,100430.44
2022-10-18T22:36:20.542Z,100433.72
2022-10-18T22:38:47.512Z,100428.09
2022-10-18T22:41:14.448Z,100423.44
2022-10-18T22:43:41.502Z,100413.69
2022-10-18T22:46:10.870Z,100408.28
2022-10-18T22:48:37.721Z,100406.47
2022-10-18T22:51:05.508Z,100407.84
2022-10-18T22:53:33.245Z,100400.63
2022-10-18T22:56:00.261Z,100398.31
2022-10-18T22:58:27.132Z,100397.59
2022-10-18T23:01:12.159Z,100393.66
2022-10-18T23:03:39.268Z,100385.00
2022-10-18T23:06:17.245Z,100383.81
2022-10-18T23:08:44.097Z,100382.34
2022-10-18T23:11:11.004Z,100372.25
2022-10-18T23:13:39.606Z,100369.28
2022-10-18T23:16:07.343Z,100368.78
2022-10-18T23:18:34.312Z,100370.13
2022-10-18T23:21:09.393Z,100364.00
2022-10-18T23:23:38.181Z,100367.06
2022-10-18T23:26:07.713Z,100365.25
2022-10-18T23:28:39.418Z,100359.94
2022-10-18T23:31:14.666Z,100352.31
2022-10-18T23:33:41.891Z,100352.31
2022-10-18T23:36:09.592Z,100349.13
2022-10-18T23:38:37.619Z,100348.09
2022-10-18T23:41:08.843Z,100351.06
2022-10-18T23:43:36.357Z,100341.72
2022-10-18T23:46:03.609Z,100339.47
2022-10-18T23:48:30.633Z,100341.50
2022-10-18T23:50:57.595Z,100330.38
2022-10-18T23:53:24.533Z,100329.47
2022-10-18T23:55:54.485Z,100320.69
2022-10-18T23:58:21.580Z,100323.78
